Terminal Aerodrome Forecast
Issued by NWS Huntsville, AL

Home | Current Version | Previous Version | Text Only | Print | Product List | Glossary On
Versions: 1 2 3 4 5 6 7 8 9 10 11 12 13
000
FTUS44 KHUN 282334
TAFHSV
TAF
KHSV 282334Z 2900/2924 28007KT P6SM SCT070 BKN250
     FM290900 30005KT P6SM -SHRA BKN040 OVC080
     FM291400 VRB04KT P6SM VCSH BKN030
     FM291800 26006KT P6SM VCTS BKN040CB=

USA.gov is the U.S. government's official web portal to all federal, state and local government web resources and services.